createdAt,value
2022-11-20T00:00:15.467Z,91.80
2022-11-20T00:01:15.477Z,91.17
2022-11-20T00:02:15.501Z,91.28
2022-11-20T00:03:15.462Z,91.69
2022-11-20T00:04:15.438Z,91.75
2022-11-20T00:05:15.389Z,91.65
2022-11-20T00:06:15.390Z,91.65
2022-11-20T00:07:15.386Z,91.75
2022-11-20T00:08:15.434Z,91.86
2022-11-20T00:09:15.364Z,91.65
2022-11-20T00:10:15.340Z,91.55
2022-11-20T00:11:16.332Z,91.34
2022-11-20T00:12:15.322Z,91.34
2022-11-20T00:13:15.288Z,91.44
2022-11-20T00:14:15.295Z,91.44
2022-11-20T00:15:15.257Z,91.55
2022-11-20T00:16:15.283Z,91.65
2022-11-20T00:17:15.254Z,92.07
2022-11-20T00:18:15.217Z,92.27
2022-11-20T00:19:15.204Z,92.07
2022-11-20T00:20:15.213Z,92.58
2022-11-20T00:21:15.174Z,92.38
2022-11-20T00:22:15.201Z,92.17
2022-11-20T00:23:15.148Z,92.17
2022-11-20T00:24:15.144Z,92.07
2022-11-20T00:25:15.128Z,92.48
2022-11-20T00:26:15.146Z,92.63
2022-11-20T00:27:15.108Z,92.83
2022-11-20T00:28:15.132Z,92.93
2022-11-20T00:29:15.063Z,93.14
2022-11-20T00:30:15.423Z,93.35
2022-11-20T00:31:15.040Z,93.35
2022-11-20T00:32:15.066Z,93.08
2022-11-20T00:33:15.024Z,93.08
2022-11-20T00:34:15.042Z,93.29
2022-11-20T00:35:15.009Z,93.29
2022-11-20T00:36:15.009Z,93.24
2022-11-20T00:37:14.967Z,93.35
2022-11-20T00:38:14.973Z,93.24
2022-11-20T00:39:14.936Z,93.24
2022-11-20T00:40:14.940Z,93.14
2022-11-20T00:41:14.913Z,92.93
2022-11-20T00:42:14.957Z,92.83
2022-11-20T00:43:14.890Z,92.52
2022-11-20T00:44:14.869Z,92.52
2022-11-20T00:45:14.863Z,92.72
2022-11-20T00:46:14.853Z,92.21
2022-11-20T00:47:14.862Z,91.28
2022-11-20T00:48:14.856Z,90.35
2022-11-20T00:49:14.805Z,90.66
2022-11-20T00:50:14.827Z,90.97
2022-11-20T00:51:14.775Z,91.07
2022-11-20T00:52:14.819Z,91.07
2022-11-20T00:53:14.747Z,91.38
2022-11-20T00:54:14.774Z,91.90
2022-11-20T00:55:14.736Z,91.80
2022-11-20T00:56:14.757Z,91.38
2022-11-20T00:57:14.732Z,91.07
2022-11-20T00:58:14.701Z,90.56
2022-11-20T00:59:14.672Z,90.25
2022-11-20T01:00:14.666Z,90.35
2022-11-20T01:01:14.763Z,90.87
2022-11-20T01:02:14.671Z,91.07
2022-11-20T01:03:14.627Z,91.49
2022-11-20T01:04:14.645Z,91.59
2022-11-20T01:05:14.610Z,91.38
2022-11-20T01:06:14.603Z,91.17
2022-11-20T01:07:14.669Z,91.28
2022-11-20T01:08:14.557Z,91.28
2022-11-20T01:09:14.551Z,91.38
2022-11-20T01:10:14.530Z,91.28
2022-11-20T01:11:14.541Z,91.49
2022-11-20T01:12:14.503Z,91.59
2022-11-20T01:13:14.511Z,91.59
2022-11-20T01:14:14.504Z,91.69
2022-11-20T01:15:14.471Z,91.49
2022-11-20T01:16:14.477Z,91.38
2022-11-20T01:17:14.452Z,91.59
2022-11-20T01:18:14.437Z,91.38
2022-11-20T01:19:17.663Z,90.87
2022-11-20T01:20:14.417Z,90.66
2022-11-20T01:21:14.384Z,91.07
2022-11-20T01:22:14.366Z,91.28
2022-11-20T01:23:14.362Z,91.49
2022-11-20T01:24:14.373Z,91.69
2022-11-20T01:25:14.339Z,91.90
2022-11-20T01:26:14.347Z,91.80
2022-11-20T01:27:14.320Z,91.59
2022-11-20T01:28:14.287Z,91.28
2022-11-20T01:29:14.318Z,90.25
2022-11-20T01:30:14.261Z,90.25
2022-11-20T01:31:14.272Z,90.77
2022-11-20T01:32:14.234Z,90.14
2022-11-20T01:33:14.229Z,89.94
2022-11-20T01:34:14.250Z,89.83
2022-11-20T01:35:14.207Z,89.73
2022-11-20T01:36:14.196Z,89.83
2022-11-20T01:37:14.263Z,89.94
2022-11-20T01:38:14.163Z,90.14
2022-11-20T01:39:14.186Z,90.35
2022-11-20T01:40:14.135Z,90.66
2022-11-20T01:41:14.136Z,90.66
2022-11-20T01:42:14.115Z,90.77
2022-11-20T01:43:14.109Z,90.77
2022-11-20T01:44:14.110Z,91.17
2022-11-20T01:45:14.077Z,91.49
2022-11-20T01:46:14.053Z,90.97
2022-11-20T01:47:14.064Z,90.77
2022-11-20T01:48:14.017Z,90.77
2022-11-20T01:49:14.018Z,90.87
2022-11-20T01:50:14.045Z,90.97
2022-11-20T01:51:14.005Z,90.97
2022-11-20T01:52:13.997Z,90.87
2022-11-20T01:53:14.017Z,90.56
2022-11-20T01:54:13.948Z,90.35
2022-11-20T01:55:13.953Z,90.56
2022-11-20T01:56:13.923Z,90.77
2022-11-20T01:57:13.926Z,90.45
2022-11-20T01:58:13.939Z,90.66
2022-11-20T01:59:13.884Z,90.77
2022-11-20T02:00:13.888Z,90.66
2022-11-20T02:01:13.936Z,90.77
2022-11-20T02:02:13.858Z,90.66
2022-11-20T02:03:13.841Z,90.04
2022-11-20T02:04:13.815Z,90.14
2022-11-20T02:05:13.835Z,90.56
2022-11-20T02:06:13.823Z,90.87
2022-11-20T02:07:13.839Z,90.97
2022-11-20T02:08:13.766Z,90.56
2022-11-20T02:09:13.761Z,90.56
2022-11-20T02:10:13.739Z,90.87
2022-11-20T02:11:13.724Z,91.07
2022-11-20T02:12:13.735Z,91.17
2022-11-20T02:13:13.745Z,91.17
2022-11-20T02:14:13.674Z,90.66
2022-11-20T02:15:13.671Z,89.52
2022-11-20T02:16:13.728Z,90.14
2022-11-20T02:17:13.659Z,91.07
2022-11-20T02:18:13.628Z,91.28
2022-11-20T02:19:13.629Z,91.28
2022-11-20T02:20:13.599Z,91.17
2022-11-20T02:21:13.625Z,91.17
2022-11-20T02:22:13.575Z,91.22
2022-11-20T02:23:13.587Z,91.32
2022-11-20T02:24:13.572Z,91.49
2022-11-20T02:25:13.546Z,91.69
2022-11-20T02:26:13.521Z,91.80
2022-11-20T02:27:13.549Z,91.90
2022-11-20T02:28:13.506Z,91.90
2022-11-20T02:29:13.483Z,92.00
2022-11-20T02:30:13.502Z,91.90
2022-11-20T02:31:13.466Z,91.80
2022-11-20T02:32:13.499Z,91.49
2022-11-20T02:33:13.443Z,91.28
2022-11-20T02:34:13.441Z,91.38
2022-11-20T02:35:13.416Z,91.49
2022-11-20T02:36:13.405Z,91.49
2022-11-20T02:37:13.406Z,91.59
2022-11-20T02:38:13.374Z,91.69
2022-11-20T02:39:13.516Z,91.90
2022-11-20T02:40:13.342Z,92.00
2022-11-20T02:41:13.376Z,91.90
2022-11-20T02:42:13.307Z,92.15
2022-11-20T02:43:13.337Z,92.15
2022-11-20T02:44:13.282Z,91.94
2022-11-20T02:45:13.285Z,91.53
2022-11-20T02:46:13.257Z,91.11
2022-11-20T02:47:13.253Z,91.11
2022-11-20T02:48:13.295Z,91.22
2022-11-20T02:49:13.228Z,91.32
2022-11-20T02:50:13.234Z,91.69
2022-11-20T02:51:13.213Z,91.69
2022-11-20T02:52:13.167Z,91.80
2022-11-20T02:53:13.209Z,91.90
2022-11-20T02:54:13.197Z,91.90
2022-11-20T02:55:13.144Z,87.15
2022-11-20T02:56:13.134Z,86.52
2022-11-20T02:57:13.125Z,86.21
2022-11-20T02:58:13.105Z,86.52
2022-11-20T02:59:13.167Z,88.18
2022-11-20T03:00:13.080Z,90.04
2022-11-20T03:01:13.149Z,90.25
2022-11-20T03:02:13.045Z,90.56
2022-11-20T03:03:13.038Z,90.35
2022-11-20T03:04:13.054Z,90.35
2022-11-20T03:05:13.024Z,90.45
2022-11-20T03:06:12.993Z,89.42
2022-11-20T03:07:13.040Z,87.97
2022-11-20T03:08:12.961Z,87.66
2022-11-20T03:09:13.000Z,88.39
2022-11-20T03:10:12.935Z,88.49
2022-11-20T03:11:12.968Z,88.59
2022-11-20T03:12:12.917Z,88.18
2022-11-20T03:13:12.913Z,87.97
2022-11-20T03:14:12.912Z,87.97
2022-11-20T03:15:12.987Z,88.07
2022-11-20T03:16:12.862Z,88.59
2022-11-20T03:17:12.861Z,88.70
2022-11-20T03:18:12.825Z,88.59
2022-11-20T03:19:12.860Z,88.80
2022-11-20T03:20:12.826Z,88.70
2022-11-20T03:21:12.814Z,87.60
2022-11-20T03:22:12.785Z,87.60
2022-11-20T03:23:12.770Z,87.70
2022-11-20T03:24:12.796Z,87.70
2022-11-20T03:25:12.750Z,88.01
2022-11-20T03:26:12.762Z,88.53
2022-11-20T03:27:12.732Z,88.43
2022-11-20T03:28:12.738Z,88.53
2022-11-20T03:29:12.698Z,88.94
2022-11-20T03:30:12.714Z,89.04
2022-11-20T03:31:12.691Z,88.64
2022-11-20T03:32:12.681Z,88.74
2022-11-20T03:33:12.645Z,89.04
2022-11-20T03:34:12.660Z,89.36
2022-11-20T03:35:12.633Z,89.46
2022-11-20T03:36:12.606Z,89.67
2022-11-20T03:37:12.637Z,89.87
2022-11-20T03:38:12.562Z,90.19
2022-11-20T03:39:12.563Z,90.39
2022-11-20T03:40:12.548Z,90.39
2022-11-20T03:41:12.538Z,90.29
2022-11-20T03:42:12.541Z,89.98
2022-11-20T03:43:12.511Z,89.36
2022-11-20T03:44:12.495Z,89.36
2022-11-20T03:45:12.483Z,89.67
2022-11-20T03:46:12.465Z,89.87
2022-11-20T03:47:12.486Z,90.39
2022-11-20T03:48:12.435Z,90.19
2022-11-20T03:49:12.429Z,90.08
2022-11-20T03:50:12.412Z,90.39
2022-11-20T03:51:12.403Z,90.50
2022-11-20T03:52:12.394Z,90.60
2022-11-20T03:53:12.410Z,90.60
2022-11-20T03:54:12.356Z,90.70
2022-11-20T03:55:12.370Z,90.19
2022-11-20T03:56:12.332Z,87.91
2022-11-20T03:57:12.356Z,87.29
2022-11-20T03:58:12.304Z,87.49
2022-11-20T03:59:12.314Z,86.57
2022-11-20T04:00:12.286Z,87.29
2022-11-20T04:01:12.277Z,88.12
2022-11-20T04:02:12.350Z,88.70
2022-11-20T04:03:12.338Z,89.32
2022-11-20T04:04:12.223Z,89.62
2022-11-20T04:05:12.221Z,89.73
2022-11-20T04:06:12.201Z,89.83
2022-11-20T04:07:12.298Z,90.14
2022-11-20T04:08:12.192Z,90.45
2022-11-20T04:09:12.173Z,90.66
2022-11-20T04:10:12.146Z,91.01
2022-11-20T04:11:12.148Z,91.22
2022-11-20T04:12:12.117Z,91.53
2022-11-20T04:13:12.146Z,91.63
2022-11-20T04:14:12.096Z,91.42
2022-11-20T04:15:12.089Z,91.32
2022-11-20T04:16:12.070Z,91.22
2022-11-20T04:17:12.070Z,91.53
2022-11-20T04:18:12.064Z,91.67
2022-11-20T04:19:12.071Z,91.78
2022-11-20T04:20:12.007Z,92.19
2022-11-20T04:21:12.030Z,92.30
2022-11-20T04:22:11.990Z,92.40
2022-11-20T04:23:11.985Z,92.30
2022-11-20T04:24:12.011Z,92.30
2022-11-20T04:25:11.964Z,92.30
2022-11-20T04:26:11.935Z,91.88
2022-11-20T04:27:11.930Z,91.88
2022-11-20T04:28:11.915Z,92.09
2022-11-20T04:29:11.940Z,92.30
2022-11-20T04:30:11.881Z,92.30
2022-11-20T04:31:11.877Z,92.09
2022-11-20T04:32:11.856Z,92.50
2022-11-20T04:33:11.878Z,92.71
2022-11-20T04:34:11.822Z,92.61
2022-11-20T04:35:11.844Z,92.61
2022-11-20T04:36:11.808Z,92.50
2022-11-20T04:37:11.815Z,92.50
2022-11-20T04:38:11.851Z,92.40
2022-11-20T04:39:11.784Z,92.50
2022-11-20T04:40:11.749Z,92.30
2022-11-20T04:41:11.762Z,92.09
2022-11-20T04:42:11.725Z,91.99
2022-11-20T04:43:11.715Z,91.78
2022-11-20T04:44:11.746Z,91.78
2022-11-20T04:45:11.730Z,92.09
2022-11-20T04:46:11.671Z,92.40
2022-11-20T04:47:11.707Z,92.09
2022-11-20T04:48:11.639Z,91.78
2022-11-20T04:49:11.795Z,91.78
2022-11-20T04:50:11.622Z,91.67
2022-11-20T04:51:11.699Z,91.63
2022-11-20T04:52:11.611Z,91.53
2022-11-20T04:53:11.577Z,91.53
2022-11-20T04:54:11.566Z,91.53
2022-11-20T04:55:11.567Z,91.32
2022-11-20T04:56:11.543Z,91.22
2022-11-20T04:57:14.584Z,91.11
2022-11-20T04:58:11.529Z,90.39
2022-11-20T04:59:11.524Z,90.53
2022-11-20T05:00:11.485Z,90.44
2022-11-20T05:01:11.557Z,90.44
2022-11-20T05:02:11.476Z,90.23
2022-11-20T05:03:11.475Z,90.02
2022-11-20T05:04:11.428Z,89.92
2022-11-20T05:05:11.436Z,89.81
2022-11-20T05:06:11.407Z,89.87
2022-11-20T05:07:11.461Z,90.39
2022-11-20T05:08:11.377Z,90.60
2022-11-20T05:09:11.374Z,90.80
2022-11-20T05:10:11.360Z,90.50
2022-11-20T05:11:11.354Z,89.87
2022-11-20T05:12:11.358Z,89.77
2022-11-20T05:13:11.324Z,89.56
2022-11-20T05:14:11.309Z,89.56
2022-11-20T05:15:11.278Z,89.77
2022-11-20T05:16:11.304Z,89.98
2022-11-20T05:17:11.260Z,89.77
2022-11-20T05:18:11.250Z,89.87
2022-11-20T05:19:11.257Z,89.77
2022-11-20T05:20:11.225Z,89.15
2022-11-20T05:21:11.235Z,88.43
2022-11-20T05:22:11.204Z,87.81
2022-11-20T05:23:11.176Z,88.06
2022-11-20T05:24:11.200Z,87.33
2022-11-20T05:25:11.149Z,86.60
2022-11-20T05:26:11.139Z,86.57
2022-11-20T05:27:11.156Z,86.25
2022-11-20T05:28:11.164Z,86.88
2022-11-20T05:29:11.108Z,87.49
2022-11-20T05:30:11.100Z,88.01
2022-11-20T05:31:11.070Z,88.32
2022-11-20T05:32:11.093Z,88.22
2022-11-20T05:33:11.045Z,88.53
2022-11-20T05:34:11.042Z,88.84
2022-11-20T05:35:11.016Z,88.74
2022-11-20T05:36:11.037Z,88.32
2022-11-20T05:37:10.993Z,87.12
2022-11-20T05:38:11.007Z,85.99
2022-11-20T05:39:11.041Z,86.91
2022-11-20T05:40:10.986Z,87.33
2022-11-20T05:41:10.947Z,86.81
2022-11-20T05:42:10.970Z,87.54
2022-11-20T05:43:11.016Z,87.85
2022-11-20T05:44:10.914Z,87.33
2022-11-20T05:45:10.911Z,87.85
2022-11-20T05:46:10.906Z,87.54
2022-11-20T05:47:10.875Z,86.91
2022-11-20T05:48:10.876Z,87.18
2022-11-20T05:49:10.841Z,87.81
2022-11-20T05:50:10.853Z,87.70
2022-11-20T05:51:10.817Z,86.67
2022-11-20T05:52:10.875Z,86.09
2022-11-20T05:53:10.786Z,85.99
2022-11-20T05:54:10.809Z,85.36
2022-11-20T05:55:10.816Z,83.71
2022-11-20T05:56:10.780Z,84.74
2022-11-20T05:57:10.758Z,85.74
2022-11-20T05:58:10.724Z,85.94
2022-11-20T05:59:10.701Z,86.05
2022-11-20T06:00:10.732Z,86.25
2022-11-20T06:01:10.700Z,86.67
2022-11-20T06:02:10.668Z,86.98
2022-11-20T06:03:10.664Z,86.77
2022-11-20T06:04:10.676Z,86.05
2022-11-20T06:05:10.624Z,84.91
2022-11-20T06:06:10.634Z,84.70
2022-11-20T06:07:10.642Z,84.08
2022-11-20T06:08:10.603Z,83.98
2022-11-20T06:09:10.611Z,83.25
2022-11-20T06:10:10.561Z,82.74
2022-11-20T06:11:10.556Z,80.77
2022-11-20T06:12:10.555Z,80.57
2022-11-20T06:13:10.505Z,80.67
2022-11-20T06:14:10.547Z,81.09
2022-11-20T06:15:10.500Z,81.29
2022-11-20T06:16:10.500Z,82.22
2022-11-20T06:17:10.464Z,78.91
2022-11-20T06:18:10.459Z,80.53
2022-11-20T06:19:10.472Z,81.46
2022-11-20T06:20:10.435Z,82.08
2022-11-20T06:21:10.420Z,82.39
2022-11-20T06:22:10.420Z,82.70
2022-11-20T06:23:10.388Z,81.25
2022-11-20T06:24:10.423Z,80.94
2022-11-20T06:25:10.364Z,81.70
2022-11-20T06:26:10.393Z,80.94
2022-11-20T06:27:10.330Z,78.98
2022-11-20T06:28:10.322Z,80.01
2022-11-20T06:29:10.349Z,80.94
2022-11-20T06:30:10.309Z,81.35
2022-11-20T06:31:10.348Z,82.18
2022-11-20T06:32:10.308Z,82.08
2022-11-20T06:33:10.291Z,82.80
2022-11-20T06:34:10.275Z,81.98
2022-11-20T06:35:10.311Z,77.56
2022-11-20T06:36:11.033Z,77.22
2022-11-20T06:37:10.228Z,78.05
2022-11-20T06:38:10.311Z,77.01
2022-11-20T06:39:10.169Z,76.60
2022-11-20T06:40:10.200Z,77.53
2022-11-20T06:41:10.148Z,77.12
2022-11-20T06:42:10.179Z,77.33
2022-11-20T06:43:10.156Z,78.56
2022-11-20T06:44:10.122Z,81.25
2022-11-20T06:45:10.096Z,80.84
2022-11-20T06:46:10.126Z,80.01
2022-11-20T06:47:10.093Z,79.91
2022-11-20T06:48:10.062Z,80.01
2022-11-20T06:49:10.040Z,80.11
2022-11-20T06:50:10.070Z,79.60
2022-11-20T06:51:10.053Z,80.01
2022-11-20T06:52:10.031Z,80.11
2022-11-20T06:53:09.997Z,80.32
2022-11-20T06:54:09.977Z,80.94
2022-11-20T06:55:09.955Z,81.56
2022-11-20T06:56:09.980Z,81.67
2022-11-20T06:57:09.977Z,80.53
2022-11-20T06:58:09.935Z,79.49
2022-11-20T06:59:09.933Z,77.33
2022-11-20T07:00:09.912Z,77.94
2022-11-20T07:01:10.010Z,79.08
2022-11-20T07:02:09.885Z,78.88
2022-11-20T07:03:09.863Z,80.22
2022-11-20T07:04:09.875Z,79.19
2022-11-20T07:05:09.835Z,79.19
2022-11-20T07:06:09.834Z,79.80
2022-11-20T07:07:09.845Z,79.19
2022-11-20T07:08:09.838Z,79.39
2022-11-20T07:09:12.697Z,80.22
2022-11-20T07:10:09.797Z,80.43
2022-11-20T07:11:09.747Z,79.80
2022-11-20T07:12:09.752Z,78.98
2022-11-20T07:13:09.761Z,79.49
2022-11-20T07:14:09.748Z,80.11
2022-11-20T07:15:09.696Z,81.25
2022-11-20T07:16:09.738Z,80.22
2022-11-20T07:17:09.681Z,80.22
2022-11-20T07:18:09.698Z,80.94
2022-11-20T07:19:09.650Z,79.49
2022-11-20T07:20:09.654Z,80.01
2022-11-20T07:21:09.627Z,80.32
2022-11-20T07:22:09.642Z,81.67
2022-11-20T07:23:09.584Z,80.94
2022-11-20T07:24:09.588Z,81.46
2022-11-20T07:25:09.576Z,81.77
2022-11-20T07:26:09.566Z,81.98
2022-11-20T07:27:09.570Z,81.15
2022-11-20T07:28:09.524Z,80.43
2022-11-20T07:29:09.518Z,79.60
2022-11-20T07:30:09.499Z,79.29
2022-11-20T07:31:12.337Z,79.91
2022-11-20T07:32:09.515Z,80.43
2022-11-20T07:33:09.459Z,79.70
2022-11-20T07:34:09.459Z,79.60
2022-11-20T07:35:09.462Z,79.70
2022-11-20T07:36:09.435Z,80.43
2022-11-20T07:37:10.588Z,81.67
2022-11-20T07:38:09.403Z,82.04
2022-11-20T07:39:09.417Z,82.76
2022-11-20T07:40:09.391Z,82.76
2022-11-20T07:41:09.366Z,81.11
2022-11-20T07:42:09.351Z,80.29
2022-11-20T07:43:09.344Z,80.29
2022-11-20T07:44:09.317Z,80.80
2022-11-20T07:45:09.305Z,83.39
2022-11-20T07:46:09.324Z,82.25
2022-11-20T07:47:09.277Z,82.04
2022-11-20T07:48:09.299Z,82.35
2022-11-20T07:49:09.244Z,82.45
2022-11-20T07:50:09.244Z,82.18
2022-11-20T07:51:09.249Z,82.29
2022-11-20T07:52:09.226Z,82.70
2022-11-20T07:53:09.195Z,83.01
2022-11-20T07:54:09.189Z,83.22
2022-11-20T07:55:09.164Z,83.11
2022-11-20T07:56:09.186Z,83.53
2022-11-20T07:57:09.140Z,83.63
2022-11-20T07:58:09.145Z,83.63
2022-11-20T07:59:09.113Z,84.05
2022-11-20T08:00:09.115Z,84.63
2022-11-20T08:01:09.158Z,84.45
2022-11-20T08:02:09.091Z,84.73
2022-11-20T08:03:09.091Z,84.94
2022-11-20T08:04:09.055Z,83.80
2022-11-20T08:05:09.029Z,83.70
2022-11-20T08:06:09.039Z,83.94
2022-11-20T08:07:09.089Z,83.94
2022-11-20T08:08:09.040Z,83.94
2022-11-20T08:09:08.992Z,83.73
2022-11-20T08:10:09.021Z,84.15
2022-11-20T08:11:08.958Z,84.36
2022-11-20T08:12:08.951Z,83.63
2022-11-20T08:13:08.937Z,82.80
2022-11-20T08:14:08.930Z,83.11
2022-11-20T08:15:13.049Z,83.01
2022-11-20T08:16:08.906Z,83.32
2022-11-20T08:17:08.919Z,83.49
2022-11-20T08:18:29.934Z,84.00
2022-11-20T08:19:08.891Z,84.83
2022-11-20T08:20:08.883Z,85.14
2022-11-20T08:21:08.825Z,86.07
2022-11-20T08:22:08.818Z,85.45
2022-11-20T08:23:08.795Z,83.49
2022-11-20T08:24:08.793Z,83.49
2022-11-20T08:25:08.791Z,82.97
2022-11-20T08:26:08.776Z,83.07
2022-11-20T08:27:08.782Z,82.66
2022-11-20T08:28:19.909Z,82.66
2022-11-20T08:29:08.741Z,82.87
2022-11-20T08:30:08.721Z,82.62
2022-11-20T08:31:08.694Z,82.62
2022-11-20T08:32:08.692Z,83.04
2022-11-20T08:33:08.698Z,82.62
2022-11-20T08:34:09.834Z,81.59
2022-11-20T08:35:08.636Z,82.73
2022-11-20T08:36:08.642Z,83.34
2022-11-20T08:37:08.631Z,83.34
2022-11-20T08:38:08.614Z,80.46
2022-11-20T08:39:08.633Z,79.32
2022-11-20T08:40:08.629Z,79.49
2022-11-20T08:41:08.562Z,80.32
2022-11-20T08:42:08.554Z,81.04
2022-11-20T08:43:08.561Z,79.25
2022-11-20T08:44:08.562Z,79.25
2022-11-20T08:45:08.538Z,78.31
2022-11-20T08:46:08.532Z,79.04
2022-11-20T08:47:08.482Z,79.76
2022-11-20T08:48:08.480Z,79.45
2022-11-20T08:49:08.486Z,78.52
2022-11-20T08:50:08.448Z,79.11
2022-11-20T08:51:08.434Z,79.00
2022-11-20T08:52:08.419Z,79.00
2022-11-20T08:53:08.408Z,79.31
2022-11-20T08:54:08.409Z,80.10
2022-11-20T08:55:08.390Z,80.16
2022-11-20T08:56:08.423Z,79.61
2022-11-20T08:57:08.341Z,78.28
2022-11-20T08:58:08.399Z,77.55
2022-11-20T08:59:43.793Z,77.35
2022-11-20T09:00:09.078Z,78.38
2022-11-20T09:01:08.342Z,78.28
2022-11-20T09:02:08.303Z,78.28
2022-11-20T09:03:08.286Z,78.48
2022-11-20T09:04:08.264Z,78.24
2022-11-20T09:05:08.246Z,75.94
2022-11-20T09:06:08.232Z,75.04
2022-11-20T09:07:08.244Z,74.50
2022-11-20T09:08:08.245Z,73.85
2022-11-20T09:09:08.190Z,72.99
2022-11-20T09:10:23.678Z,71.86
2022-11-20T09:11:08.189Z,72.06
2022-11-20T09:12:08.169Z,72.00
2022-11-20T09:13:08.175Z,72.31
2022-11-20T09:14:08.138Z,71.55
2022-11-20T09:15:08.131Z,71.72
2022-11-20T09:16:08.116Z,71.59
2022-11-20T09:17:08.088Z,71.59
2022-11-20T09:18:08.076Z,67.25
2022-11-20T09:19:34.078Z,67.73
2022-11-20T09:20:08.057Z,68.21
2022-11-20T09:21:08.087Z,68.01
2022-11-20T09:22:08.046Z,68.14
2022-11-20T09:23:08.006Z,68.45
2022-11-20T09:24:08.007Z,67.22
2022-11-20T09:25:08.023Z,67.97
2022-11-20T09:26:07.961Z,69.40
2022-11-20T09:27:07.963Z,68.38
2022-11-20T09:28:07.930Z,67.79
2022-11-20T09:29:07.929Z,68.21
2022-11-20T09:30:07.905Z,69.78
2022-11-20T09:31:07.946Z,70.60
2022-11-20T09:32:07.881Z,70.50
2022-11-20T09:33:07.873Z,68.06
2022-11-20T09:34:07.857Z,71.55
2022-11-20T09:35:07.879Z,71.66
2022-11-20T09:36:07.833Z,70.63
2022-11-20T09:37:07.988Z,70.29
2022-11-20T09:38:07.798Z,66.97
2022-11-20T09:39:07.802Z,63.76
2022-11-20T09:40:07.785Z,61.89
2022-11-20T09:41:07.881Z,62.30
2022-11-20T09:42:07.749Z,63.60
2022-11-20T09:43:07.742Z,62.78
2022-11-20T09:44:07.718Z,63.85
2022-11-20T09:45:07.729Z,62.32
2022-11-20T09:46:07.711Z,60.68
2022-11-20T09:47:07.717Z,59.99
2022-11-20T09:48:07.667Z,58.12
2022-11-20T09:49:07.671Z,58.97
2022-11-20T09:50:07.671Z,60.40
2022-11-20T09:51:07.662Z,61.22
2022-11-20T09:52:07.623Z,58.89
2022-11-20T09:53:07.617Z,58.28
2022-11-20T09:54:07.588Z,59.53
2022-11-20T09:55:07.585Z,61.79
2022-11-20T09:56:07.590Z,63.32
2022-11-20T09:57:07.559Z,60.84
2022-11-20T09:58:07.542Z,58.66
2022-11-20T09:59:07.554Z,57.43
2022-11-20T10:00:07.526Z,57.10
2022-11-20T10:01:07.640Z,57.58
2022-11-20T10:02:07.471Z,56.97
2022-11-20T10:03:07.474Z,56.43
2022-11-20T10:04:07.470Z,54.28
2022-11-20T10:05:07.486Z,52.85
2022-11-20T10:06:07.431Z,54.16
2022-11-20T10:07:31.483Z,53.95
2022-11-20T10:08:07.497Z,55.71
2022-11-20T10:09:07.394Z,54.10
2022-11-20T10:10:07.379Z,56.25
2022-11-20T10:11:07.413Z,57.99
2022-11-20T10:12:07.388Z,59.22
2022-11-20T10:13:07.348Z,56.76
2022-11-20T10:14:07.318Z,57.97
2022-11-20T10:15:07.312Z,59.57
2022-11-20T10:16:07.290Z,57.12
2022-11-20T10:17:07.324Z,58.04
2022-11-20T10:18:07.297Z,57.22
2022-11-20T10:19:07.269Z,57.43
2022-11-20T10:20:07.242Z,57.09
2022-11-20T10:21:07.240Z,56.89
2022-11-20T10:22:07.210Z,56.07
2022-11-20T10:23:07.238Z,56.81
2022-11-20T10:24:07.215Z,58.55
2022-11-20T10:25:07.184Z,56.84
2022-11-20T10:26:07.166Z,58.48
2022-11-20T10:27:07.156Z,57.38
2022-11-20T10:28:07.129Z,57.07
2022-11-20T10:29:21.137Z,58.02
2022-11-20T10:30:07.135Z,58.97
2022-11-20T10:31:07.106Z,59.58
2022-11-20T10:32:07.084Z,58.56
2022-11-20T10:33:07.109Z,58.15
2022-11-20T10:34:16.912Z,59.09
2022-11-20T10:35:07.075Z,60.81
2022-11-20T10:36:07.033Z,61.32
2022-11-20T10:37:07.013Z,61.50
2022-11-20T10:38:07.059Z,59.86
2022-11-20T10:39:07.030Z,60.58
2022-11-20T10:40:06.968Z,60.75
2022-11-20T10:41:07.047Z,60.69
2022-11-20T10:42:06.975Z,59.85
2022-11-20T10:43:06.957Z,58.32
2022-11-20T10:44:06.917Z,56.30
2022-11-20T10:45:07.141Z,55.79
2022-11-20T10:46:06.898Z,53.23
2022-11-20T10:47:06.941Z,53.23
2022-11-20T10:48:06.925Z,53.44
2022-11-20T10:49:06.863Z,53.98
2022-11-20T10:50:06.840Z,54.59
2022-11-20T10:51:06.826Z,53.36
2022-11-20T10:52:06.815Z,53.28
2022-11-20T10:53:06.846Z,53.72
2022-11-20T10:54:06.777Z,55.58
2022-11-20T10:55:06.769Z,57.74
2022-11-20T10:56:06.768Z,56.51
2022-11-20T10:57:06.749Z,57.53
2022-11-20T10:58:06.754Z,57.30
2022-11-20T10:59:06.727Z,56.69
2022-11-20T11:00:06.689Z,57.81
2022-11-20T11:01:06.743Z,57.40
2022-11-20T11:02:06.702Z,57.71
2022-11-20T11:03:06.666Z,58.94
2022-11-20T11:04:06.658Z,57.68
2022-11-20T11:05:11.651Z,57.17
2022-11-20T11:06:06.647Z,55.33
2022-11-20T11:07:06.659Z,56.35
2022-11-20T11:08:06.592Z,58.40
2022-11-20T11:09:06.591Z,57.28
2022-11-20T11:10:06.570Z,56.76
2022-11-20T11:11:06.564Z,53.90
2022-11-20T11:12:07.314Z,52.06
2022-11-20T11:13:06.564Z,50.96
2022-11-20T11:14:06.518Z,52.29
2022-11-20T11:15:06.509Z,53.00
2022-11-20T11:16:06.512Z,51.98
2022-11-20T11:17:06.519Z,52.08
2022-11-20T11:18:06.478Z,50.04
2022-11-20T11:19:06.507Z,50.24
2022-11-20T11:20:06.434Z,51.57
2022-11-20T11:21:06.462Z,50.32
2022-11-20T11:22:06.449Z,52.26
2022-11-20T11:23:06.425Z,52.06
2022-11-20T11:24:34.744Z,52.26
2022-11-20T11:25:06.396Z,50.42
2022-11-20T11:26:06.373Z,53.57
2022-11-20T11:27:06.354Z,53.01
2022-11-20T11:28:06.381Z,52.37
2022-11-20T11:29:06.526Z,52.47
2022-11-20T11:30:06.292Z,49.18
2022-11-20T11:31:06.291Z,47.24
2022-11-20T11:32:06.302Z,45.53
2022-11-20T11:33:06.265Z,45.96
2022-11-20T11:34:06.249Z,46.98
2022-11-20T11:35:06.241Z,47.49
2022-11-20T11:36:06.224Z,47.69
2022-11-20T11:37:06.282Z,48.21
2022-11-20T11:38:06.185Z,49.62
2022-11-20T11:39:06.194Z,49.29
2022-11-20T11:41:06.202Z,48.11
2022-11-20T11:42:06.138Z,46.67
2022-11-20T11:43:06.136Z,45.94
2022-11-20T11:44:06.111Z,44.83
2022-11-20T11:45:06.135Z,44.96
2022-11-20T11:46:06.095Z,43.84
2022-11-20T11:47:06.079Z,46.00
2022-11-20T11:48:06.063Z,47.73
2022-11-20T11:49:06.085Z,45.00
2022-11-20T11:50:06.034Z,46.43
2022-11-20T11:51:06.040Z,45.20
2022-11-20T11:52:06.009Z,45.81
2022-11-20T11:53:06.002Z,45.94
2022-11-20T11:54:06.025Z,45.73
2022-11-20T11:55:10.264Z,46.78
2022-11-20T11:56:05.955Z,46.49
2022-11-20T11:57:05.955Z,47.31
2022-11-20T11:58:05.955Z,47.41
2022-11-20T11:59:05.924Z,46.90
2022-11-20T12:00:05.904Z,46.41
2022-11-20T12:01:05.901Z,45.33
2022-11-20T12:02:05.973Z,46.17
2022-11-20T12:03:05.889Z,46.30
2022-11-20T12:04:05.855Z,47.42
2022-11-20T12:05:05.833Z,49.01
2022-11-20T12:06:05.937Z,50.73
2022-11-20T12:07:24.370Z,50.73
2022-11-20T12:08:10.982Z,50.30
2022-11-20T12:09:05.823Z,49.68
2022-11-20T12:10:05.758Z,50.37
2022-11-20T12:11:05.760Z,50.07
2022-11-20T12:12:05.764Z,50.17
2022-11-20T12:13:05.729Z,48.43
2022-11-20T12:14:05.701Z,48.13
2022-11-20T12:15:05.699Z,48.54
2022-11-20T12:16:05.714Z,49.79
2022-11-20T12:17:05.670Z,50.30
2022-11-20T12:18:05.655Z,49.71
2022-11-20T12:19:05.647Z,49.30
2022-11-20T12:20:05.622Z,51.45
2022-11-20T12:21:05.638Z,52.16
2022-11-20T12:22:05.602Z,50.52
2022-11-20T12:23:05.596Z,49.60
2022-11-20T12:24:05.578Z,49.60
2022-11-20T12:25:05.569Z,47.38
2022-11-20T12:26:05.572Z,47.50
2022-11-20T12:27:05.589Z,49.04
2022-11-20T12:28:05.519Z,49.04
2022-11-20T12:29:05.537Z,50.14
2022-11-20T12:30:05.492Z,52.19
2022-11-20T12:31:05.526Z,54.03
2022-11-20T12:32:05.477Z,54.64
2022-11-20T12:33:05.456Z,50.75
2022-11-20T12:34:05.593Z,51.86
2022-11-20T12:35:11.123Z,52.26
2022-11-20T12:36:05.446Z,54.10
2022-11-20T12:37:05.432Z,53.69
2022-11-20T12:38:05.399Z,52.67
2022-11-20T12:39:05.378Z,51.86
2022-11-20T12:40:05.354Z,51.75
2022-11-20T12:41:05.394Z,49.19
2022-11-20T12:42:05.331Z,49.19
2022-11-20T12:43:05.328Z,49.50
2022-11-20T12:44:05.327Z,48.79
2022-11-20T12:45:05.328Z,49.91
2022-11-20T12:46:05.281Z,49.01
2022-11-20T12:47:05.310Z,50.14
2022-11-20T12:48:05.243Z,46.78
2022-11-20T12:49:05.242Z,46.81
2022-11-20T12:50:05.245Z,46.81
2022-11-20T12:51:14.993Z,49.37
2022-11-20T12:52:05.205Z,49.37
2022-11-20T12:53:05.194Z,48.36